createdAt,value
2019-01-24T00:01:31.131Z,99.90
2019-01-24T00:03:35.127Z,99.90
2019-01-24T00:05:38.967Z,99.90
2019-01-24T00:07:42.945Z,99.90
2019-01-24T00:09:46.967Z,99.90
2019-01-24T00:11:51.196Z,99.90
2019-01-24T00:13:56.158Z,99.90
2019-01-24T00:16:00.430Z,99.90
2019-01-24T00:18:04.366Z,99.90
2019-01-24T00:20:08.526Z,99.90
2019-01-24T00:22:12.344Z,99.90
2019-01-24T00:24:16.110Z,99.90
2019-01-24T00:26:21.484Z,99.90
2019-01-24T00:28:25.879Z,99.90
2019-01-24T00:30:29.811Z,99.90
2019-01-24T00:32:33.690Z,99.90
2019-01-24T00:34:37.838Z,99.90
2019-01-24T00:36:41.823Z,99.90
2019-01-24T00:38:45.792Z,99.90
2019-01-24T00:40:49.589Z,99.90
2019-01-24T00:42:53.685Z,99.90
2019-01-24T00:44:57.706Z,99.90
2019-01-24T00:47:01.565Z,99.90
2019-01-24T00:49:05.687Z,99.90
2019-01-24T00:51:09.609Z,99.90
2019-01-24T00:53:13.506Z,99.90
2019-01-24T00:55:17.469Z,99.90
2019-01-24T00:57:21.346Z,99.90
2019-01-24T00:59:25.707Z,99.90
2019-01-24T01:01:29.828Z,99.90
2019-01-24T01:03:33.773Z,99.90
2019-01-24T01:05:37.670Z,99.90
2019-01-24T01:07:41.638Z,99.90
2019-01-24T01:09:45.656Z,99.90
2019-01-24T01:11:49.730Z,99.90
2019-01-24T01:13:53.955Z,99.90
2019-01-24T01:15:57.864Z,99.90
2019-01-24T01:18:01.977Z,99.90
2019-01-24T01:20:07.535Z,99.90
2019-01-24T01:22:11.483Z,99.90
2019-01-24T01:24:15.367Z,99.90
2019-01-24T01:26:19.253Z,99.90
2019-01-24T01:28:23.855Z,99.90
2019-01-24T01:30:27.934Z,99.90
2019-01-24T01:32:31.992Z,99.90
2019-01-24T01:34:36.392Z,99.90
2019-01-24T01:36:40.494Z,99.90
2019-01-24T01:38:44.451Z,99.90
2019-01-24T01:40:48.451Z,99.90
2019-01-24T01:42:52.870Z,99.90
2019-01-24T01:44:57.042Z,99.90
2019-01-24T01:47:00.992Z,99.90
2019-01-24T01:49:05.339Z,99.90
2019-01-24T01:51:09.279Z,99.90
2019-01-24T01:53:13.215Z,99.90
2019-01-24T01:55:17.210Z,99.90
2019-01-24T01:57:21.092Z,99.90
2019-01-24T01:59:25.314Z,99.90
2019-01-24T02:01:29.694Z,99.90
2019-01-24T02:03:33.582Z,99.90
2019-01-24T02:05:37.380Z,99.90
2019-01-24T02:07:41.347Z,99.90
2019-01-24T02:09:45.301Z,99.90
2019-01-24T02:11:49.399Z,99.90
2019-01-24T02:13:53.464Z,99.90
2019-01-24T02:15:57.598Z,99.90
2019-01-24T02:18:01.548Z,99.90
2019-01-24T02:20:09.019Z,99.90
2019-01-24T02:22:12.930Z,99.90
2019-01-24T02:24:16.859Z,99.90
2019-01-24T02:26:20.628Z,99.90
2019-01-24T02:28:24.771Z,99.90
2019-01-24T02:30:29.914Z,99.90
2019-01-24T02:32:33.772Z,99.90
2019-01-24T02:34:37.574Z,99.90
2019-01-24T02:36:41.448Z,99.90
2019-01-24T02:38:45.309Z,99.90
2019-01-24T02:40:49.149Z,99.90
2019-01-24T02:42:53.213Z,99.90
2019-01-24T02:44:57.491Z,99.90
2019-01-24T02:47:01.400Z,99.90
2019-01-24T02:49:05.435Z,99.90
2019-01-24T02:51:09.263Z,99.90
2019-01-24T02:53:13.201Z,99.90
2019-01-24T02:55:17.307Z,99.90
2019-01-24T02:57:21.296Z,99.90
2019-01-24T02:59:25.650Z,99.90
2019-01-24T03:01:29.832Z,99.90
2019-01-24T03:03:33.986Z,99.90
2019-01-24T03:05:37.859Z,99.90
2019-01-24T03:07:41.827Z,99.90
2019-01-24T03:09:45.740Z,99.90
2019-01-24T03:11:49.761Z,99.90
2019-01-24T03:13:54.362Z,99.90
2019-01-24T03:15:58.350Z,99.90
2019-01-24T03:18:02.371Z,99.90
2019-01-24T03:20:07.211Z,99.90
2019-01-24T03:22:11.064Z,99.90
2019-01-24T03:24:15.008Z,99.90
2019-01-24T03:26:18.894Z,99.90
2019-01-24T03:28:22.723Z,99.90
2019-01-24T03:30:27.029Z,99.90
2019-01-24T03:32:31.153Z,99.90
2019-01-24T03:34:35.243Z,99.90
2019-01-24T03:36:39.016Z,99.90
2019-01-24T03:38:42.939Z,99.90
2019-01-24T03:40:46.959Z,99.90
2019-01-24T03:42:51.079Z,99.90
2019-01-24T03:44:55.359Z,99.90
2019-01-24T03:46:59.415Z,99.90
2019-01-24T03:49:03.521Z,99.90
2019-01-24T03:51:07.439Z,99.90
2019-01-24T03:53:11.748Z,99.90
2019-01-24T03:55:16.983Z,99.90
2019-01-24T03:57:20.817Z,99.90
2019-01-24T03:59:25.467Z,99.90
2019-01-24T04:01:29.540Z,99.90
2019-01-24T04:03:33.503Z,99.90
2019-01-24T04:05:37.806Z,99.90
2019-01-24T04:07:41.577Z,99.90
2019-01-24T04:09:45.496Z,99.90
2019-01-24T04:11:49.665Z,99.90
2019-01-24T04:13:53.515Z,99.90
2019-01-24T04:15:58.160Z,99.90
2019-01-24T04:18:02.135Z,99.90
2019-01-24T04:20:06.872Z,99.90
2019-01-24T04:22:10.647Z,99.90
2019-01-24T04:24:14.544Z,99.90
2019-01-24T04:26:18.430Z,99.90
2019-01-24T04:28:22.391Z,99.90
2019-01-24T04:30:26.967Z,99.90
2019-01-24T04:32:31.313Z,99.90
2019-01-24T04:34:35.206Z,99.90
2019-01-24T04:36:39.065Z,99.90
2019-01-24T04:38:42.912Z,99.90
2019-01-24T04:40:46.954Z,99.90
2019-01-24T04:42:50.887Z,99.90
2019-01-24T04:44:55.015Z,99.90
2019-01-24T04:46:59.006Z,99.90
2019-01-24T04:49:02.986Z,99.90
2019-01-24T04:51:07.028Z,99.90
2019-01-24T04:53:10.855Z,99.90
2019-01-24T04:55:16.749Z,99.90
2019-01-24T04:57:20.509Z,99.90
2019-01-24T04:59:24.500Z,99.90
2019-01-24T05:01:29.164Z,99.90
2019-01-24T05:03:33.227Z,99.90
2019-01-24T05:05:37.267Z,99.90
2019-01-24T05:07:41.092Z,99.90
2019-01-24T05:09:44.912Z,99.90
2019-01-24T05:11:48.848Z,99.90
2019-01-24T05:13:52.664Z,99.90
2019-01-24T05:15:57.161Z,99.90
2019-01-24T05:18:01.751Z,99.90
2019-01-24T05:20:07.250Z,99.90
2019-01-24T05:22:11.194Z,99.90
2019-01-24T05:24:15.104Z,99.90
2019-01-24T05:26:19.010Z,99.90
2019-01-24T05:28:22.919Z,99.90
2019-01-24T05:30:30.397Z,99.90
2019-01-24T05:32:34.467Z,99.90
2019-01-24T05:34:38.397Z,99.90
2019-01-24T05:36:42.204Z,99.90
2019-01-24T05:38:46.142Z,99.90
2019-01-24T05:40:49.916Z,99.90
2019-01-24T05:42:53.801Z,99.90
2019-01-24T05:44:58.221Z,99.90
2019-01-24T05:47:03.133Z,99.90
2019-01-24T05:49:07.194Z,99.90
2019-01-24T05:51:11.151Z,99.90
2019-01-24T05:53:14.967Z,99.90
2019-01-24T05:55:18.909Z,99.90
2019-01-24T05:57:23.099Z,99.90
2019-01-24T05:59:27.528Z,99.90
2019-01-24T06:01:32.385Z,99.90
2019-01-24T06:03:36.375Z,99.90
2019-01-24T06:05:41.942Z,99.90
2019-01-24T06:07:45.874Z,99.90
2019-01-24T06:09:49.702Z,99.90
2019-01-24T06:11:53.524Z,99.90
2019-01-24T06:13:58.187Z,99.90
2019-01-24T06:16:02.503Z,99.90
2019-01-24T06:18:07.232Z,99.90
2019-01-24T06:20:11.515Z,99.90
2019-01-24T06:22:15.408Z,99.90
2019-01-24T06:24:19.271Z,99.90
2019-01-24T06:26:23.050Z,99.90
2019-01-24T06:28:27.364Z,99.90
2019-01-24T06:30:31.454Z,99.90
2019-01-24T06:32:35.265Z,99.90
2019-01-24T06:34:39.192Z,99.90
2019-01-24T06:36:43.052Z,99.90
2019-01-24T06:38:46.998Z,99.90
2019-01-24T06:40:50.951Z,99.90
2019-01-24T06:43:14.035Z,99.90
2019-01-24T06:45:19.770Z,99.90
2019-01-24T06:47:23.641Z,99.90
2019-01-24T06:49:28.048Z,99.90
2019-01-24T06:51:32.190Z,99.90
2019-01-24T06:53:36.179Z,99.90
2019-01-24T06:55:39.979Z,99.90
2019-01-24T06:57:43.934Z,99.90
2019-01-24T06:59:47.836Z,99.90
2019-01-24T07:01:51.721Z,99.90
2019-01-24T07:03:55.583Z,99.90
2019-01-24T07:06:00.116Z,99.90
2019-01-24T07:08:04.167Z,99.90
2019-01-24T07:10:11.343Z,99.90
2019-01-24T07:12:15.193Z,99.90
2019-01-24T07:14:19.071Z,99.90
2019-01-24T07:16:22.902Z,99.90
2019-01-24T07:18:30.670Z,99.90
2019-01-24T07:20:35.043Z,99.90
2019-01-24T07:22:39.051Z,99.90
2019-01-24T07:24:42.888Z,99.90
2019-01-24T07:26:46.836Z,99.90
2019-01-24T07:28:50.722Z,99.90
2019-01-24T07:30:54.620Z,99.90
2019-01-24T07:33:01.543Z,99.90
2019-01-24T07:35:07.599Z,99.90
2019-01-24T07:37:11.572Z,99.90
2019-01-24T07:39:15.368Z,99.90
2019-01-24T07:41:19.244Z,99.90
2019-01-24T07:43:23.207Z,99.90
2019-01-24T07:45:41.140Z,99.90
2019-01-24T07:47:45.344Z,99.90
2019-01-24T07:49:49.295Z,99.90
2019-01-24T07:51:53.173Z,99.90
2019-01-24T07:53:57.531Z,99.90
2019-01-24T07:56:01.925Z,99.90
2019-01-24T07:58:07.885Z,99.90
2019-01-24T08:00:15.197Z,99.90
2019-01-24T08:02:19.052Z,99.90
2019-01-24T08:04:22.964Z,99.90
2019-01-24T08:06:27.280Z,99.90
2019-01-24T08:08:31.588Z,99.90
2019-01-24T08:10:36.015Z,99.90
2019-01-24T08:12:40.202Z,99.90
2019-01-24T08:14:44.787Z,99.90
2019-01-24T08:16:48.792Z,99.90
2019-01-24T08:18:52.631Z,99.90
2019-01-24T08:20:56.674Z,99.90
2019-01-24T08:23:01.527Z,99.90
2019-01-24T08:25:06.271Z,99.90
2019-01-24T08:27:10.450Z,99.90
2019-01-24T08:29:14.222Z,99.90
2019-01-24T08:31:18.237Z,99.90
2019-01-24T08:33:22.574Z,99.90
2019-01-24T08:35:26.563Z,99.90
2019-01-24T08:37:31.742Z,99.90
2019-01-24T08:39:36.157Z,99.90
2019-01-24T08:41:40.223Z,99.90
2019-01-24T08:43:44.200Z,99.90
2019-01-24T08:45:48.107Z,99.90
2019-01-24T08:47:51.978Z,99.90
2019-01-24T08:49:55.777Z,99.90
2019-01-24T08:52:02.046Z,99.90
2019-01-24T08:54:06.212Z,99.90
2019-01-24T08:56:10.371Z,99.90
2019-01-24T08:58:14.167Z,99.90
2019-01-24T09:00:19.128Z,99.90
2019-01-24T09:02:22.903Z,99.90
2019-01-24T09:04:26.893Z,99.90
2019-01-24T09:06:31.619Z,99.90
2019-01-24T09:08:35.784Z,99.90
2019-01-24T09:10:40.211Z,99.90
2019-01-24T09:12:44.103Z,99.90
2019-01-24T09:14:47.883Z,99.90
2019-01-24T09:16:51.757Z,99.90
2019-01-24T09:18:55.511Z,99.80
2019-01-24T09:21:00.267Z,99.60
2019-01-24T09:23:05.365Z,99.50
2019-01-24T09:25:10.210Z,99.50
2019-01-24T09:27:13.974Z,99.60
2019-01-24T09:29:17.973Z,99.80
2019-01-24T09:31:21.869Z,99.90
2019-01-24T09:33:25.681Z,99.80
2019-01-24T09:35:30.558Z,99.90
2019-01-24T09:37:34.692Z,99.70
2019-01-24T09:39:38.720Z,99.80
2019-01-24T09:41:42.623Z,99.40
2019-01-24T09:43:46.455Z,99.60
2019-01-24T09:45:50.540Z,99.30
2019-01-24T09:47:56.027Z,98.90
2019-01-24T09:50:00.588Z,99.10
2019-01-24T09:52:04.982Z,99.20
2019-01-24T09:54:10.169Z,98.80
2019-01-24T09:56:14.170Z,98.90
2019-01-24T09:58:17.994Z,98.70
2019-01-24T10:00:30.944Z,98.50
2019-01-24T10:02:35.235Z,98.60
2019-01-24T10:04:39.675Z,97.70
2019-01-24T10:06:43.583Z,98.20
2019-01-24T10:08:47.448Z,98.70
2019-01-24T10:10:51.279Z,98.70
2019-01-24T10:12:56.119Z,97.90
2019-01-24T10:15:01.699Z,97.70
2019-01-24T10:17:05.889Z,98.20
2019-01-24T10:19:13.343Z,98.80
2019-01-24T10:21:17.368Z,98.70
2019-01-24T10:23:21.172Z,99.00
2019-01-24T10:25:35.161Z,98.60
2019-01-24T10:27:51.114Z,98.80
2019-01-24T10:29:54.946Z,98.50
2019-01-24T10:31:59.486Z,98.20
2019-01-24T10:34:04.080Z,97.40
2019-01-24T10:36:08.930Z,97.30
2019-01-24T10:38:12.911Z,97.80
2019-01-24T10:40:19.745Z,97.60
2019-01-24T10:42:23.675Z,97.60
2019-01-24T10:44:27.600Z,97.30
2019-01-24T10:46:32.434Z,96.50
2019-01-24T10:48:37.152Z,96.50
2019-01-24T10:50:41.499Z,96.90
2019-01-24T10:52:45.357Z,97.50
2019-01-24T10:54:49.319Z,97.30
2019-01-24T10:56:53.207Z,97.10
2019-01-24T10:58:57.156Z,97.70
2019-01-24T11:01:01.788Z,98.20
2019-01-24T11:03:07.910Z,97.90
2019-01-24T11:05:13.594Z,98.40
2019-01-24T11:07:17.837Z,98.60
2019-01-24T11:09:22.257Z,98.50
2019-01-24T11:11:26.153Z,98.10
2019-01-24T11:13:32.361Z,98.30
2019-01-24T11:15:37.040Z,98.80
2019-01-24T11:17:41.256Z,98.30
2019-01-24T11:19:47.578Z,97.70
2019-01-24T11:21:51.640Z,97.40
2019-01-24T11:23:55.597Z,96.70
2019-01-24T11:26:01.066Z,96.70
2019-01-24T11:28:07.066Z,96.70
2019-01-24T11:30:14.441Z,96.40
2019-01-24T11:32:18.347Z,96.10
2019-01-24T11:34:22.279Z,95.90
2019-01-24T11:36:26.151Z,96.20
2019-01-24T11:38:30.479Z,96.20
2019-01-24T11:40:34.797Z,95.80
2019-01-24T11:42:38.864Z,95.70
2019-01-24T11:44:42.816Z,95.90
2019-01-24T11:46:46.807Z,96.50
2019-01-24T11:48:50.576Z,97.00
2019-01-24T11:50:54.550Z,97.10
2019-01-24T11:52:58.384Z,96.90
2019-01-24T11:55:05.927Z,96.70
2019-01-24T11:57:09.885Z,97.00
2019-01-24T11:59:13.803Z,97.90
2019-01-24T12:01:19.950Z,98.00
2019-01-24T12:03:23.655Z,98.10
2019-01-24T12:05:27.605Z,98.30
2019-01-24T12:07:32.325Z,98.10
2019-01-24T12:09:37.109Z,98.50
2019-01-24T12:11:41.285Z,98.20
2019-01-24T12:13:45.052Z,98.40
2019-01-24T12:15:49.007Z,98.80
2019-01-24T12:17:53.208Z,98.80
2019-01-24T12:19:56.997Z,99.20
2019-01-24T12:22:02.530Z,99.30
2019-01-24T12:24:10.224Z,99.50
2019-01-24T12:26:14.108Z,99.30
2019-01-24T12:28:17.946Z,99.70
2019-01-24T12:30:24.462Z,99.50
2019-01-24T12:32:28.717Z,99.60
2019-01-24T12:34:33.650Z,99.90
2019-01-24T12:36:37.769Z,99.90
2019-01-24T12:38:42.147Z,99.90
2019-01-24T12:40:46.087Z,99.90
2019-01-24T12:42:50.119Z,99.90
2019-01-24T12:44:53.902Z,99.90
2019-01-24T12:46:57.844Z,99.90
2019-01-24T12:49:02.122Z,99.90
2019-01-24T12:51:06.851Z,99.90
2019-01-24T12:53:11.050Z,99.90
2019-01-24T12:55:15.403Z,99.90
2019-01-24T12:57:19.152Z,99.90
2019-01-24T12:59:22.963Z,99.90
2019-01-24T13:01:26.869Z,99.90
2019-01-24T13:03:31.454Z,99.90
2019-01-24T13:05:35.751Z,99.90
2019-01-24T13:07:39.864Z,99.90
2019-01-24T13:09:43.682Z,99.90
2019-01-24T13:11:47.520Z,99.90
2019-01-24T13:13:51.379Z,99.90
2019-01-24T13:15:55.139Z,99.90
2019-01-24T13:17:59.092Z,99.90
2019-01-24T13:20:04.992Z,99.90
2019-01-24T13:22:09.180Z,99.90
2019-01-24T13:24:13.184Z,99.90
2019-01-24T13:26:17.087Z,99.90
2019-01-24T13:28:20.931Z,99.90
2019-01-24T13:30:27.307Z,99.90
2019-01-24T13:32:31.618Z,99.90
2019-01-24T13:34:35.823Z,99.90
2019-01-24T13:36:40.431Z,99.90
2019-01-24T13:38:44.343Z,99.90
2019-01-24T13:40:48.172Z,99.90
2019-01-24T13:42:52.116Z,99.90
2019-01-24T13:44:56.508Z,99.90
2019-01-24T13:47:00.598Z,99.90
2019-01-24T13:49:05.272Z,99.40
2019-01-24T13:51:09.486Z,99.20
2019-01-24T13:53:13.456Z,99.10
2019-01-24T13:55:36.785Z,98.20
2019-01-24T13:57:40.828Z,97.30
2019-01-24T13:59:44.613Z,96.40
2019-01-24T14:01:48.538Z,95.30
2019-01-24T14:04:01.732Z,94.50
2019-01-24T14:06:09.235Z,93.80
2019-01-24T14:08:14.200Z,94.00
2019-01-24T14:10:18.417Z,93.80
2019-01-24T14:12:22.221Z,93.10
2019-01-24T14:14:26.135Z,92.70
2019-01-24T14:16:33.815Z,92.00
2019-01-24T14:18:38.383Z,90.90
2019-01-24T14:20:43.051Z,89.30
2019-01-24T14:22:47.178Z,87.00
2019-01-24T14:24:50.982Z,83.20
2019-01-24T14:26:54.783Z,80.60
2019-01-24T14:28:58.704Z,78.80
2019-01-24T14:31:04.038Z,78.60
2019-01-24T14:33:09.301Z,78.20
2019-01-24T14:35:14.568Z,77.40
2019-01-24T14:37:18.436Z,78.30
2019-01-24T14:39:22.433Z,81.70
2019-01-24T14:41:26.711Z,83.30
2019-01-24T14:43:30.646Z,85.60
2019-01-24T14:45:42.384Z,86.80
2019-01-24T14:47:46.364Z,86.40
2019-01-24T14:50:10.904Z,87.70
2019-01-24T14:52:14.899Z,88.40
2019-01-24T14:54:18.745Z,90.40
2019-01-24T14:56:22.571Z,90.70
2019-01-24T14:58:26.340Z,91.60
2019-01-24T15:00:36.102Z,92.70
2019-01-24T15:02:41.372Z,93.10
2019-01-24T15:04:45.307Z,93.40
2019-01-24T15:06:49.157Z,94.20
2019-01-24T15:08:52.950Z,94.50
2019-01-24T15:10:56.935Z,94.90
2019-01-24T15:13:00.859Z,95.20
2019-01-24T15:15:06.682Z,95.40
2019-01-24T15:17:10.863Z,95.50
2019-01-24T15:19:15.217Z,95.40
2019-01-24T15:21:18.973Z,96.00
2019-01-24T15:23:22.920Z,96.30
2019-01-24T15:25:26.806Z,96.30
2019-01-24T15:27:30.696Z,96.00
2019-01-24T15:29:35.765Z,95.80
2019-01-24T15:31:39.683Z,96.00
2019-01-24T15:33:43.657Z,96.30
2019-01-24T15:35:47.928Z,96.50
2019-01-24T15:37:54.747Z,96.50
2019-01-24T15:39:57.684Z,96.60
2019-01-24T15:42:01.644Z,96.80
2019-01-24T15:44:06.503Z,96.70
2019-01-24T15:46:10.595Z,96.40
2019-01-24T15:48:14.658Z,96.40
2019-01-24T15:50:19.631Z,96.40
2019-01-24T15:52:23.766Z,96.50
2019-01-24T15:54:27.720Z,96.60
2019-01-24T15:56:31.676Z,96.50
2019-01-24T15:58:36.653Z,96.60
2019-01-24T16:00:40.892Z,96.60
2019-01-24T16:02:44.811Z,96.70
2019-01-24T16:04:48.596Z,97.20
2019-01-24T16:06:52.415Z,97.20
2019-01-24T16:08:56.531Z,97.10
2019-01-24T16:11:00.369Z,97.10
2019-01-24T16:13:05.563Z,97.30
2019-01-24T16:15:13.004Z,97.80
2019-01-24T16:17:16.959Z,97.60
2019-01-24T16:19:20.745Z,97.40
2019-01-24T16:21:24.576Z,97.20
2019-01-24T16:23:28.476Z,97.20
2019-01-24T16:25:33.414Z,97.70
2019-01-24T16:27:37.699Z,97.80
2019-01-24T16:29:41.634Z,97.80
2019-01-24T16:31:45.926Z,97.70
2019-01-24T16:33:49.775Z,97.90
2019-01-24T16:35:54.331Z,97.90
2019-01-24T16:37:58.694Z,97.70
2019-01-24T16:40:02.798Z,97.70
2019-01-24T16:42:07.004Z,98.00
2019-01-24T16:44:11.107Z,97.80
2019-01-24T16:46:21.787Z,98.00
2019-01-24T16:48:25.604Z,98.00
2019-01-24T16:50:29.552Z,98.00
2019-01-24T16:52:35.032Z,98.10
2019-01-24T16:54:39.118Z,98.20
2019-01-24T16:56:43.304Z,98.30
2019-01-24T16:58:47.195Z,98.40
2019-01-24T17:01:15.162Z,98.60
2019-01-24T17:03:19.059Z,98.60
2019-01-24T17:05:23.011Z,98.90
2019-01-24T17:07:26.865Z,98.50
2019-01-24T17:09:30.665Z,98.50
2019-01-24T17:11:35.120Z,98.40
2019-01-24T17:13:39.091Z,98.70
2019-01-24T17:15:43.179Z,98.70
2019-01-24T17:17:47.152Z,98.80
2019-01-24T17:19:51.039Z,98.60
2019-01-24T17:21:54.790Z,98.50
2019-01-24T17:23:59.027Z,97.70
2019-01-24T17:26:04.003Z,97.70
2019-01-24T17:28:08.204Z,97.70
2019-01-24T17:30:15.487Z,97.70
2019-01-24T17:32:19.320Z,97.90
2019-01-24T17:34:23.167Z,97.50
2019-01-24T17:36:27.172Z,97.10
2019-01-24T17:38:31.076Z,97.20
2019-01-24T17:40:35.775Z,97.20
2019-01-24T17:42:40.235Z,97.10
2019-01-24T17:44:45.013Z,97.60
2019-01-24T17:46:48.795Z,97.80
2019-01-24T17:48:52.741Z,97.60
2019-01-24T17:50:56.618Z,97.30
2019-01-24T17:53:00.519Z,97.60
2019-01-24T17:55:07.588Z,97.60
2019-01-24T17:57:11.663Z,97.90
2019-01-24T17:59:15.712Z,97.80
2019-01-24T18:01:19.636Z,98.10
2019-01-24T18:03:23.507Z,98.10
2019-01-24T18:05:27.415Z,97.90
2019-01-24T18:07:38.702Z,97.90
2019-01-24T18:09:42.660Z,97.70
2019-01-24T18:11:48.178Z,97.80
2019-01-24T18:13:52.428Z,97.70
2019-01-24T18:15:56.375Z,97.80
2019-01-24T18:18:00.624Z,98.50
2019-01-24T18:20:07.331Z,98.30
2019-01-24T18:22:11.455Z,98.20
2019-01-24T18:24:15.339Z,97.70
2019-01-24T18:26:19.225Z,97.80
2019-01-24T18:28:23.099Z,98.30
2019-01-24T18:30:28.145Z,99.00
2019-01-24T18:32:32.435Z,99.00
2019-01-24T18:34:39.178Z,98.60
2019-01-24T18:36:43.132Z,98.70
2019-01-24T18:38:47.239Z,98.80
2019-01-24T18:40:51.222Z,99.00
2019-01-24T18:42:55.447Z,99.20
2019-01-24T18:44:59.491Z,99.60
2019-01-24T18:47:03.644Z,99.40
2019-01-24T18:49:07.973Z,99.30
2019-01-24T18:51:11.890Z,99.20
2019-01-24T18:53:15.877Z,98.70
2019-01-24T18:55:19.820Z,98.90
2019-01-24T18:57:23.761Z,99.30
2019-01-24T18:59:27.591Z,99.50
2019-01-24T19:01:31.441Z,99.20
2019-01-24T19:03:35.712Z,98.80
2019-01-24T19:05:40.858Z,98.80
2019-01-24T19:07:44.852Z,98.60
2019-01-24T19:09:48.740Z,98.20
2019-01-24T19:11:52.676Z,98.60
2019-01-24T19:13:56.524Z,99.00
2019-01-24T19:16:00.398Z,98.80
2019-01-24T19:18:05.797Z,98.80
2019-01-24T19:20:10.881Z,98.50
2019-01-24T19:22:15.015Z,98.90
2019-01-24T19:24:18.850Z,98.90
2019-01-24T19:26:22.741Z,99.00
2019-01-24T19:28:26.611Z,99.10
2019-01-24T19:30:31.450Z,98.90
2019-01-24T19:32:35.639Z,98.70
2019-01-24T19:34:39.864Z,99.30
2019-01-24T19:36:43.688Z,99.60
2019-01-24T19:38:53.055Z,99.40
2019-01-24T19:40:53.784Z,99.30
2019-01-24T19:42:57.671Z,98.80
2019-01-24T19:45:01.804Z,99.10
2019-01-24T19:47:06.026Z,99.00
2019-01-24T19:49:09.953Z,98.90
2019-01-24T19:51:13.893Z,99.10
2019-01-24T19:53:17.958Z,99.60
2019-01-24T19:55:22.156Z,99.90
2019-01-24T19:57:25.956Z,99.50
2019-01-24T19:59:29.893Z,99.40
2019-01-24T20:01:33.787Z,99.70
2019-01-24T20:03:38.156Z,99.80
2019-01-24T20:05:42.280Z,99.90
2019-01-24T20:07:46.430Z,99.90
2019-01-24T20:09:50.255Z,99.90
2019-01-24T20:11:54.137Z,99.90
2019-01-24T20:13:58.120Z,99.80
2019-01-24T20:16:01.973Z,99.60
2019-01-24T20:18:07.462Z,99.10
2019-01-24T20:20:12.751Z,99.00
2019-01-24T20:22:16.631Z,98.90
2019-01-24T20:24:20.495Z,99.30
2019-01-24T20:26:24.471Z,99.60
2019-01-24T20:31:46.032Z,99.60
2019-01-24T20:33:49.843Z,99.60
2019-01-24T20:35:58.698Z,99.70
2019-01-24T20:38:02.637Z,99.90
2019-01-24T20:40:07.752Z,99.90
2019-01-24T20:42:11.989Z,99.60
2019-01-24T20:44:15.900Z,99.10
2019-01-24T20:46:20.452Z,99.30
2019-01-24T20:48:24.376Z,98.70
2019-01-24T20:50:48.285Z,98.60
2019-01-24T20:52:52.186Z,98.60
2019-01-24T20:54:56.088Z,98.50
2019-01-24T20:56:59.961Z,98.70
2019-01-24T20:59:03.928Z,99.30
2019-01-24T21:01:08.396Z,99.70
2019-01-24T21:03:12.429Z,99.50
2019-01-24T21:05:18.516Z,99.50
2019-01-24T21:07:29.209Z,99.60
2019-01-24T21:09:33.148Z,99.00
2019-01-24T21:11:37.460Z,99.00
2019-01-24T21:13:41.486Z,99.60
2019-01-24T21:16:04.850Z,99.40
2019-01-24T21:18:09.354Z,99.50
2019-01-24T21:20:16.045Z,99.50
2019-01-24T21:22:20.324Z,99.60
2019-01-24T21:24:24.100Z,99.60
2019-01-24T21:26:28.022Z,99.90
2019-01-24T21:28:31.916Z,99.90
2019-01-24T21:30:37.203Z,99.60
2019-01-24T21:32:41.322Z,99.30
2019-01-24T21:34:45.141Z,99.10
2019-01-24T21:36:49.054Z,99.10
2019-01-24T21:38:53.039Z,99.00
2019-01-24T21:40:57.216Z,98.90
2019-01-24T21:43:01.160Z,99.70
2019-01-24T21:45:06.546Z,99.90
2019-01-24T21:47:11.059Z,99.50
2019-01-24T21:49:15.132Z,99.80
2019-01-24T21:51:19.061Z,99.90
2019-01-24T21:53:22.923Z,99.20
2019-01-24T21:55:26.911Z,99.70
2019-01-24T21:57:30.720Z,99.90
2019-01-24T21:59:34.932Z,99.90
2019-01-24T22:01:39.390Z,99.90
2019-01-24T22:03:43.461Z,99.90
2019-01-24T22:05:47.524Z,99.90
2019-01-24T22:07:51.366Z,99.90
2019-01-24T22:09:55.203Z,99.90
2019-01-24T22:11:59.029Z,99.90
2019-01-24T22:14:03.007Z,99.80
2019-01-24T22:16:07.642Z,99.90
2019-01-24T22:18:11.836Z,99.90
2019-01-24T22:20:16.600Z,99.90
2019-01-24T22:22:20.438Z,99.90
2019-01-24T22:24:24.254Z,99.90
2019-01-24T22:26:28.071Z,99.90
2019-01-24T22:28:31.937Z,99.80
2019-01-24T22:30:51.667Z,99.90
2019-01-24T22:32:55.556Z,99.80
2019-01-24T22:35:03.197Z,99.70
2019-01-24T22:37:07.519Z,99.50
2019-01-24T22:39:11.574Z,99.40
2019-01-24T22:41:15.493Z,99.40
2019-01-24T22:43:19.570Z,99.20
2019-01-24T22:45:24.301Z,99.40
2019-01-24T22:47:28.605Z,99.40
2019-01-24T22:49:33.011Z,99.50
2019-01-24T22:51:37.091Z,99.90
2019-01-24T22:53:41.526Z,99.80
2019-01-24T22:55:45.668Z,99.60
2019-01-24T22:57:49.891Z,99.40
2019-01-24T22:59:53.800Z,99.50
2019-01-24T23:02:09.229Z,99.70
2019-01-24T23:04:15.953Z,99.90
2019-01-24T23:06:19.942Z,99.80
2019-01-24T23:08:23.963Z,99.80
2019-01-24T23:10:27.871Z,99.90
2019-01-24T23:12:31.755Z,99.90
2019-01-24T23:14:36.030Z,99.90
2019-01-24T23:16:40.417Z,99.90
2019-01-24T23:18:44.496Z,99.90
2019-01-24T23:20:48.536Z,99.90
2019-01-24T23:22:52.725Z,99.90
2019-01-24T23:24:56.499Z,99.90
2019-01-24T23:27:00.329Z,99.90
2019-01-24T23:29:04.597Z,99.90
2019-01-24T23:31:09.240Z,99.90
2019-01-24T23:33:13.716Z,99.90
2019-01-24T23:35:17.752Z,99.90
2019-01-24T23:37:21.526Z,99.90
2019-01-24T23:39:25.395Z,99.90
2019-01-24T23:41:29.281Z,99.40
2019-01-24T23:43:33.229Z,99.00
2019-01-24T23:45:38.246Z,99.20
2019-01-24T23:47:42.341Z,99.30
2019-01-24T23:49:46.251Z,99.50
2019-01-24T23:51:51.615Z,99.40
2019-01-24T23:53:55.486Z,99.60
2019-01-24T23:55:59.291Z,99.80
2019-01-24T23:58:03.197Z,99.90
